sensor_id;sensor_type;location;lat;lon;timestamp;pressure;altitude;pressure_sealevel;temperature;humidity
28000;BME280;15328;50.860;10.562;2023-05-03T00:03:29;97521.78;;;6.29;56.26
28000;BME280;15328;50.860;10.562;2023-05-03T00:08:30;97521.81;;;6.21;56.33
28000;BME280;15328;50.860;10.562;2023-05-03T00:13:31;97517.00;;;6.16;56.39
28000;BME280;15328;50.860;10.562;2023-05-03T00:18:31;97514.00;;;5.95;56.77
28000;BME280;15328;50.860;10.562;2023-05-03T00:23:31;97515.94;;;5.85;56.83
28000;BME280;15328;50.860;10.562;2023-05-03T00:28:32;97504.88;;;5.81;56.86
28000;BME280;15328;50.860;10.562;2023-05-03T00:33:32;97501.53;;;5.63;56.70
28000;BME280;15328;50.860;10.562;2023-05-03T00:38:32;97510.59;;;5.61;56.73
28000;BME280;15328;50.860;10.562;2023-05-03T00:43:33;97502.84;;;5.59;56.60
28000;BME280;15328;50.860;10.562;2023-05-03T00:48:34;97504.25;;;5.45;56.96
28000;BME280;15328;50.860;10.562;2023-05-03T00:53:35;97493.34;;;5.32;57.08
28000;BME280;15328;50.860;10.562;2023-05-03T00:58:35;97498.13;;;5.28;56.73
28000;BME280;15328;50.860;10.562;2023-05-03T01:03:39;97492.91;;;5.11;57.20
28000;BME280;15328;50.860;10.562;2023-05-03T01:08:46;97486.66;;;5.12;56.99
28000;BME280;15328;50.860;10.562;2023-05-03T01:13:54;97486.31;;;5.07;57.41
28000;BME280;15328;50.860;10.562;2023-05-03T01:18:58;97486.66;;;4.78;58.15
28000;BME280;15328;50.860;10.562;2023-05-03T01:24:17;97488.50;;;4.85;57.78
28000;BME280;15328;50.860;10.562;2023-05-03T01:29:18;97486.50;;;4.79;58.63
28000;BME280;15328;50.860;10.562;2023-05-03T01:44:36;97491.25;;;4.76;58.12
28000;BME280;15328;50.860;10.562;2023-05-03T01:49:38;97497.59;;;4.65;58.47
28000;BME280;15328;50.860;10.562;2023-05-03T01:54:38;97490.66;;;4.64;58.38
28000;BME280;15328;50.860;10.562;2023-05-03T01:59:38;97492.72;;;4.70;58.17
28000;BME280;15328;50.860;10.562;2023-05-03T02:04:39;97498.81;;;4.71;58.49
28000;BME280;15328;50.860;10.562;2023-05-03T02:09:39;97514.47;;;4.72;57.54
28000;BME280;15328;50.860;10.562;2023-05-03T02:14:40;97509.59;;;4.59;58.00
28000;BME280;15328;50.860;10.562;2023-05-03T02:19:40;97505.91;;;4.52;58.43
28000;BME280;15328;50.860;10.562;2023-05-03T02:24:41;97514.44;;;4.46;58.28
28000;BME280;15328;50.860;10.562;2023-05-03T02:29:42;97515.59;;;4.44;58.18
28000;BME280;15328;50.860;10.562;2023-05-03T02:34:46;97513.00;;;4.52;57.85
28000;BME280;15328;50.860;10.562;2023-05-03T02:39:47;97511.50;;;4.49;58.72
28000;BME280;15328;50.860;10.562;2023-05-03T02:44:47;97515.78;;;4.50;58.52
28000;BME280;15328;50.860;10.562;2023-05-03T02:49:48;97507.91;;;4.32;58.45
28000;BME280;15328;50.860;10.562;2023-05-03T02:54:48;97518.44;;;4.32;58.93
28000;BME280;15328;50.860;10.562;2023-05-03T02:59:49;97517.25;;;4.27;58.66
28000;BME280;15328;50.860;10.562;2023-05-03T03:04:49;97511.38;;;4.33;57.56
28000;BME280;15328;50.860;10.562;2023-05-03T03:09:50;97506.47;;;4.38;58.15
28000;BME280;15328;50.860;10.562;2023-05-03T03:14:50;97508.97;;;4.22;58.70
28000;BME280;15328;50.860;10.562;2023-05-03T03:19:51;97509.13;;;4.20;58.32
28000;BME280;15328;50.860;10.562;2023-05-03T03:24:52;97514.19;;;4.14;58.87
28000;BME280;15328;50.860;10.562;2023-05-03T03:29:52;97517.25;;;4.09;58.70
28000;BME280;15328;50.860;10.562;2023-05-03T03:34:53;97516.19;;;4.02;59.64
28000;BME280;15328;50.860;10.562;2023-05-03T03:39:53;97518.22;;;4.08;59.15
28000;BME280;15328;50.860;10.562;2023-05-03T03:44:53;97518.84;;;4.02;58.89
28000;BME280;15328;50.860;10.562;2023-05-03T03:49:54;97518.00;;;4.01;59.63
28000;BME280;15328;50.860;10.562;2023-05-03T03:54:55;97541.78;;;4.10;59.18
28000;BME280;15328;50.860;10.562;2023-05-03T03:59:56;97543.06;;;4.23;58.47
28000;BME280;15328;50.860;10.562;2023-05-03T04:04:57;97549.81;;;4.08;59.28
28000;BME280;15328;50.860;10.562;2023-05-03T04:09:57;97549.81;;;4.08;59.17
28000;BME280;15328;50.860;10.562;2023-05-03T04:14:58;97548.03;;;3.91;59.45
28000;BME280;15328;50.860;10.562;2023-05-03T04:19:58;97553.00;;;3.94;59.79
28000;BME280;15328;50.860;10.562;2023-05-03T04:24:58;97554.13;;;4.09;59.47
28000;BME280;15328;50.860;10.562;2023-05-03T04:30:01;97558.34;;;4.02;59.71
28000;BME280;15328;50.860;10.562;2023-05-03T04:35:03;97566.31;;;4.10;59.94
28000;BME280;15328;50.860;10.562;2023-05-03T04:40:08;97569.91;;;4.09;60.37
28000;BME280;15328;50.860;10.562;2023-05-03T04:45:11;97572.66;;;4.17;60.21
28000;BME280;15328;50.860;10.562;2023-05-03T04:50:13;97568.34;;;4.34;59.75
28000;BME280;15328;50.860;10.562;2023-05-03T04:55:14;97571.13;;;4.50;59.34
28000;BME280;15328;50.860;10.562;2023-05-03T05:00:14;97586.13;;;4.50;59.27
28000;BME280;15328;50.860;10.562;2023-05-03T05:05:15;97580.00;;;4.67;59.63
28000;BME280;15328;50.860;10.562;2023-05-03T05:10:16;97581.41;;;4.79;59.30
28000;BME280;15328;50.860;10.562;2023-05-03T05:15:16;97575.34;;;4.87;59.05
28000;BME280;15328;50.860;10.562;2023-05-03T05:20:17;97581.13;;;5.16;58.45
28000;BME280;15328;50.860;10.562;2023-05-03T05:25:17;97575.47;;;5.29;58.95
28000;BME280;15328;50.860;10.562;2023-05-03T05:30:17;97582.63;;;5.45;58.56
28000;BME280;15328;50.860;10.562;2023-05-03T05:35:18;97587.16;;;5.69;58.19
28000;BME280;15328;50.860;10.562;2023-05-03T05:40:18;97596.38;;;5.91;57.02
28000;BME280;15328;50.860;10.562;2023-05-03T05:45:19;97596.88;;;5.94;56.88
28000;BME280;15328;50.860;10.562;2023-05-03T05:50:19;97599.59;;;6.18;56.44
28000;BME280;15328;50.860;10.562;2023-05-03T05:55:20;97605.41;;;6.38;55.46
28000;BME280;15328;50.860;10.562;2023-05-03T06:00:20;97605.25;;;6.48;55.05
28000;BME280;15328;50.860;10.562;2023-05-03T06:05:21;97604.59;;;6.70;54.11
28000;BME280;15328;50.860;10.562;2023-05-03T06:10:21;97608.56;;;6.82;53.92
28000;BME280;15328;50.860;10.562;2023-05-03T06:15:22;97608.25;;;6.94;53.62
28000;BME280;15328;50.860;10.562;2023-05-03T06:20:22;97621.28;;;7.11;52.66
28000;BME280;15328;50.860;10.562;2023-05-03T06:25:23;97615.97;;;7.28;52.80
28000;BME280;15328;50.860;10.562;2023-05-03T06:30:23;97607.50;;;7.40;52.15
28000;BME280;15328;50.860;10.562;2023-05-03T06:35:24;97611.59;;;7.59;52.12
28000;BME280;15328;50.860;10.562;2023-05-03T06:40:26;97624.97;;;7.66;51.10
28000;BME280;15328;50.860;10.562;2023-05-03T06:45:26;97604.56;;;7.83;50.96
28000;BME280;15328;50.860;10.562;2023-05-03T06:50:26;97608.78;;;8.00;50.43
28000;BME280;15328;50.860;10.562;2023-05-03T06:55:27;97610.50;;;8.16;50.42
28000;BME280;15328;50.860;10.562;2023-05-03T07:00:27;97607.78;;;8.32;50.36
28000;BME280;15328;50.860;10.562;2023-05-03T07:05:29;97611.34;;;8.47;49.72
28000;BME280;15328;50.860;10.562;2023-05-03T07:10:29;97607.13;;;8.61;49.35
28000;BME280;15328;50.860;10.562;2023-05-03T07:15:30;97602.84;;;8.75;48.53
28000;BME280;15328;50.860;10.562;2023-05-03T07:20:30;97605.75;;;8.88;48.32
28000;BME280;15328;50.860;10.562;2023-05-03T07:25:31;97602.25;;;9.10;48.23
28000;BME280;15328;50.860;10.562;2023-05-03T07:30:32;97604.38;;;9.29;48.34
28000;BME280;15328;50.860;10.562;2023-05-03T07:35:32;97592.03;;;9.37;47.42
28000;BME280;15328;50.860;10.562;2023-05-03T07:40:32;97590.94;;;9.46;47.42
28000;BME280;15328;50.860;10.562;2023-05-03T07:45:33;97588.53;;;9.51;46.95
28000;BME280;15328;50.860;10.562;2023-05-03T07:50:33;97588.44;;;9.74;46.77
28000;BME280;15328;50.860;10.562;2023-05-03T07:55:33;97585.59;;;9.90;46.28
28000;BME280;15328;50.860;10.562;2023-05-03T08:00:35;97583.41;;;9.94;45.17
28000;BME280;15328;50.860;10.562;2023-05-03T08:05:36;97589.63;;;10.01;44.43
28000;BME280;15328;50.860;10.562;2023-05-03T08:10:36;97588.69;;;10.23;44.68
28000;BME280;15328;50.860;10.562;2023-05-03T08:15:37;97580.59;;;10.16;44.21
28000;BME280;15328;50.860;10.562;2023-05-03T08:20:37;97578.81;;;10.38;44.31
28000;BME280;15328;50.860;10.562;2023-05-03T08:25:38;97574.22;;;10.68;45.09
28000;BME280;15328;50.860;10.562;2023-05-03T08:30:39;97573.09;;;11.05;44.42
28000;BME280;15328;50.860;10.562;2023-05-03T08:35:40;97583.19;;;11.17;43.04
28000;BME280;15328;50.860;10.562;2023-05-03T08:40:42;97588.72;;;11.43;43.30
28000;BME280;15328;50.860;10.562;2023-05-03T08:45:43;97587.28;;;11.40;41.61
28000;BME280;15328;50.860;10.562;2023-05-03T08:50:44;97591.56;;;11.76;42.10
28000;BME280;15328;50.860;10.562;2023-05-03T08:55:44;97591.50;;;11.97;41.51
28000;BME280;15328;50.860;10.562;2023-05-03T09:00:44;97584.81;;;12.15;40.69
28000;BME280;15328;50.860;10.562;2023-05-03T09:05:45;97584.72;;;12.49;40.99
28000;BME280;15328;50.860;10.562;2023-05-03T09:10:45;97576.75;;;12.62;39.67
28000;BME280;15328;50.860;10.562;2023-05-03T09:15:55;97581.06;;;12.77;39.56
28000;BME280;15328;50.860;10.562;2023-05-03T09:20:56;97574.94;;;13.22;39.96
28000;BME280;15328;50.860;10.562;2023-05-03T09:25:57;97590.75;;;13.37;38.71
28000;BME280;15328;50.860;10.562;2023-05-03T09:31:05;97576.28;;;13.78;38.81
28000;BME280;15328;50.860;10.562;2023-05-03T09:36:06;97580.56;;;14.37;38.30
28000;BME280;15328;50.860;10.562;2023-05-03T09:41:07;97572.03;;;14.91;37.84
28000;BME280;15328;50.860;10.562;2023-05-03T09:46:09;97569.25;;;15.72;36.18
28000;BME280;15328;50.860;10.562;2023-05-03T09:51:10;97576.94;;;16.84;34.32
28000;BME280;15328;50.860;10.562;2023-05-03T09:56:11;97592.09;;;18.02;32.45
28000;BME280;15328;50.860;10.562;2023-05-03T10:01:13;97586.13;;;18.80;29.10
28000;BME280;15328;50.860;10.562;2023-05-03T10:11:25;97562.31;;;20.16;27.72
28000;BME280;15328;50.860;10.562;2023-05-03T10:16:30;97574.56;;;20.02;26.77
28000;BME280;15328;50.860;10.562;2023-05-03T10:21:45;97571.84;;;20.24;27.41
28000;BME280;15328;50.860;10.562;2023-05-03T10:26:49;97562.25;;;20.55;27.12
28000;BME280;15328;50.860;10.562;2023-05-03T10:31:50;97562.00;;;20.83;27.14
28000;BME280;15328;50.860;10.562;2023-05-03T10:36:51;97565.00;;;21.19;26.39
28000;BME280;15328;50.860;10.562;2023-05-03T10:41:56;97565.53;;;21.48;26.04
28000;BME280;15328;50.860;10.562;2023-05-03T10:47:08;97560.53;;;21.72;25.74
28000;BME280;15328;50.860;10.562;2023-05-03T10:57:36;97558.53;;;21.99;24.00
28000;BME280;15328;50.860;10.562;2023-05-03T11:02:41;97560.56;;;22.24;24.03
28000;BME280;15328;50.860;10.562;2023-05-03T11:07:47;97553.72;;;22.11;23.88
28000;BME280;15328;50.860;10.562;2023-05-03T11:12:48;97561.31;;;22.09;24.55
28000;BME280;15328;50.860;10.562;2023-05-03T11:17:49;97555.13;;;22.19;24.37
28000;BME280;15328;50.860;10.562;2023-05-03T11:22:50;97556.81;;;21.88;23.40
28000;BME280;15328;50.860;10.562;2023-05-03T11:27:51;97554.75;;;21.58;24.36
28000;BME280;15328;50.860;10.562;2023-05-03T11:32:51;97545.09;;;21.30;24.06
28000;BME280;15328;50.860;10.562;2023-05-03T11:37:52;97542.81;;;20.85;25.14
28000;BME280;15328;50.860;10.562;2023-05-03T11:42:59;97527.75;;;20.67;24.93
28000;BME280;15328;50.860;10.562;2023-05-03T11:48:00;97526.47;;;20.48;24.98
28000;BME280;15328;50.860;10.562;2023-05-03T11:53:00;97524.78;;;20.20;25.12
28000;BME280;15328;50.860;10.562;2023-05-03T11:58:01;97530.38;;;19.91;25.62
28000;BME280;15328;50.860;10.562;2023-05-03T12:03:01;97524.13;;;20.08;26.38
28000;BME280;15328;50.860;10.562;2023-05-03T12:08:02;97510.72;;;19.96;26.45
28000;BME280;15328;50.860;10.562;2023-05-03T12:13:02;97515.75;;;19.87;25.51
28000;BME280;15328;50.860;10.562;2023-05-03T12:18:11;97511.94;;;19.83;27.28
28000;BME280;15328;50.860;10.562;2023-05-03T12:23:12;97510.72;;;19.96;26.37
28000;BME280;15328;50.860;10.562;2023-05-03T12:28:12;97523.91;;;20.36;26.60
28000;BME280;15328;50.860;10.562;2023-05-03T12:33:13;97523.94;;;20.90;26.47
28000;BME280;15328;50.860;10.562;2023-05-03T12:38:15;97515.97;;;20.51;25.75
28000;BME280;15328;50.860;10.562;2023-05-03T12:43:15;97525.97;;;20.51;26.46
28000;BME280;15328;50.860;10.562;2023-05-03T12:48:16;97512.41;;;20.46;26.74
28000;BME280;15328;50.860;10.562;2023-05-03T12:53:16;97507.31;;;20.49;26.79
28000;BME280;15328;50.860;10.562;2023-05-03T12:58:16;97515.06;;;20.41;25.76
28000;BME280;15328;50.860;10.562;2023-05-03T13:03:17;97496.34;;;20.12;24.73
28000;BME280;15328;50.860;10.562;2023-05-03T13:08:17;97502.78;;;20.06;25.83
28000;BME280;15328;50.860;10.562;2023-05-03T13:13:18;97497.97;;;20.13;26.36
28000;BME280;15328;50.860;10.562;2023-05-03T13:18:18;97489.69;;;19.98;26.54
28000;BME280;15328;50.860;10.562;2023-05-03T13:23:19;97485.09;;;20.20;26.97
28000;BME280;15328;50.860;10.562;2023-05-03T13:28:19;97475.88;;;20.16;26.38
28000;BME280;15328;50.860;10.562;2023-05-03T13:33:23;97470.19;;;19.69;25.60
28000;BME280;15328;50.860;10.562;2023-05-03T13:38:24;97472.00;;;19.08;27.30
28000;BME280;15328;50.860;10.562;2023-05-03T13:43:24;97458.44;;;19.03;27.60
28000;BME280;15328;50.860;10.562;2023-05-03T13:48:24;97459.84;;;19.05;26.75
28000;BME280;15328;50.860;10.562;2023-05-03T13:53:25;97448.03;;;18.61;26.82
28000;BME280;15328;50.860;10.562;2023-05-03T13:58:26;97447.03;;;18.17;27.69
28000;BME280;15328;50.860;10.562;2023-05-03T14:03:26;97438.97;;;18.05;29.05
28000;BME280;15328;50.860;10.562;2023-05-03T14:08:26;97445.63;;;17.86;28.63
28000;BME280;15328;50.860;10.562;2023-05-03T14:13:27;97421.41;;;17.34;29.07
28000;BME280;15328;50.860;10.562;2023-05-03T14:18:28;97419.91;;;17.15;29.85
28000;BME280;15328;50.860;10.562;2023-05-03T14:23:28;97419.34;;;16.89;30.08
28000;BME280;15328;50.860;10.562;2023-05-03T14:28:28;97422.56;;;16.56;31.48
28000;BME280;15328;50.860;10.562;2023-05-03T14:33:29;97414.91;;;16.30;31.31
28000;BME280;15328;50.860;10.562;2023-05-03T14:38:29;97411.69;;;15.98;31.82
28000;BME280;15328;50.860;10.562;2023-05-03T14:43:30;97410.75;;;15.92;32.38
28000;BME280;15328;50.860;10.562;2023-05-03T14:48:31;97414.38;;;15.68;32.37
28000;BME280;15328;50.860;10.562;2023-05-03T14:58:34;97402.16;;;15.35;33.45
28000;BME280;15328;50.860;10.562;2023-05-03T15:03:34;97406.75;;;15.28;34.06
28000;BME280;15328;50.860;10.562;2023-05-03T15:08:35;97401.72;;;15.20;33.76
28000;BME280;15328;50.860;10.562;2023-05-03T15:13:35;97395.88;;;15.05;33.47
28000;BME280;15328;50.860;10.562;2023-05-03T15:18:36;97400.94;;;14.95;35.10
28000;BME280;15328;50.860;10.562;2023-05-03T15:23:36;97402.13;;;14.99;36.90
28000;BME280;15328;50.860;10.562;2023-05-03T15:28:36;97396.25;;;14.90;36.37
28000;BME280;15328;50.860;10.562;2023-05-03T15:33:38;97394.94;;;14.81;35.90
28000;BME280;15328;50.860;10.562;2023-05-03T15:38:42;97383.94;;;14.64;35.67
28000;BME280;15328;50.860;10.562;2023-05-03T15:43:44;97383.03;;;14.52;35.70
28000;BME280;15328;50.860;10.562;2023-05-03T15:48:44;97376.69;;;14.46;36.04
28000;BME280;15328;50.860;10.562;2023-05-03T15:53:45;97376.72;;;14.40;35.76
28000;BME280;15328;50.860;10.562;2023-05-03T15:58:46;97377.16;;;14.37;35.84
28000;BME280;15328;50.860;10.562;2023-05-03T16:03:46;97381.31;;;14.33;36.72
28000;BME280;15328;50.860;10.562;2023-05-03T16:08:47;97373.50;;;14.31;36.65
28000;BME280;15328;50.860;10.562;2023-05-03T16:13:47;97371.66;;;14.32;36.34
28000;BME280;15328;50.860;10.562;2023-05-03T16:18:47;97374.75;;;14.29;35.77
28000;BME280;15328;50.860;10.562;2023-05-03T16:23:48;97375.59;;;14.29;36.63
28000;BME280;15328;50.860;10.562;2023-05-03T16:28:48;97382.78;;;14.29;36.05
28000;BME280;15328;50.860;10.562;2023-05-03T16:33:48;97372.53;;;14.26;36.27
28000;BME280;15328;50.860;10.562;2023-05-03T16:38:49;97369.63;;;14.27;36.42
28000;BME280;15328;50.860;10.562;2023-05-03T16:43:49;97371.88;;;14.30;36.54
28000;BME280;15328;50.860;10.562;2023-05-03T16:48:50;97377.22;;;14.30;37.03
28000;BME280;15328;50.860;10.562;2023-05-03T16:53:51;97371.28;;;14.28;37.15
28000;BME280;15328;50.860;10.562;2023-05-03T16:58:52;97375.00;;;14.20;37.29
28000;BME280;15328;50.860;10.562;2023-05-03T17:03:52;97370.00;;;14.06;37.57
28000;BME280;15328;50.860;10.562;2023-05-03T17:08:53;97376.25;;;13.93;37.02
28000;BME280;15328;50.860;10.562;2023-05-03T17:13:53;97361.94;;;13.81;36.84
28000;BME280;15328;50.860;10.562;2023-05-03T17:18:54;97373.09;;;13.71;37.59
28000;BME280;15328;50.860;10.562;2023-05-03T17:23:54;97364.66;;;13.74;37.71
28000;BME280;15328;50.860;10.562;2023-05-03T17:28:55;97371.09;;;13.60;37.89
28000;BME280;15328;50.860;10.562;2023-05-03T17:33:55;97369.88;;;13.56;39.17
28000;BME280;15328;50.860;10.562;2023-05-03T17:38:59;97375.66;;;13.53;38.27
28000;BME280;15328;50.860;10.562;2023-05-03T17:43:59;97374.69;;;13.41;38.23
28000;BME280;15328;50.860;10.562;2023-05-03T17:49:01;97371.44;;;13.32;38.78
28000;BME280;15328;50.860;10.562;2023-05-03T17:54:01;97364.72;;;13.23;38.67
28000;BME280;15328;50.860;10.562;2023-05-03T17:59:01;97375.19;;;13.11;39.04
28000;BME280;15328;50.860;10.562;2023-05-03T18:04:02;97378.50;;;13.07;39.92
28000;BME280;15328;50.860;10.562;2023-05-03T18:09:03;97382.00;;;13.00;40.15
28000;BME280;15328;50.860;10.562;2023-05-03T18:14:04;97379.16;;;12.95;40.40
28000;BME280;15328;50.860;10.562;2023-05-03T18:19:05;97382.69;;;12.76;40.41
28000;BME280;15328;50.860;10.562;2023-05-03T18:24:05;97379.63;;;12.66;40.09
28000;BME280;15328;50.860;10.562;2023-05-03T18:29:06;97380.25;;;12.55;40.59
28000;BME280;15328;50.860;10.562;2023-05-03T18:34:06;97383.94;;;12.54;41.12
28000;BME280;15328;50.860;10.562;2023-05-03T18:39:07;97366.09;;;12.48;41.19
28000;BME280;15328;50.860;10.562;2023-05-03T18:44:07;97379.66;;;12.33;41.54
28000;BME280;15328;50.860;10.562;2023-05-03T18:49:08;97388.47;;;12.07;42.82
28000;BME280;15328;50.860;10.562;2023-05-03T18:54:09;97385.56;;;11.89;43.63
28000;BME280;15328;50.860;10.562;2023-05-03T18:59:09;97396.78;;;11.71;44.08
28000;BME280;15328;50.860;10.562;2023-05-03T19:04:09;97394.50;;;11.55;44.60
28000;BME280;15328;50.860;10.562;2023-05-03T19:09:10;97383.56;;;11.36;46.08
28000;BME280;15328;50.860;10.562;2023-05-03T19:14:11;97398.50;;;11.31;44.75
28000;BME280;15328;50.860;10.562;2023-05-03T19:19:11;97395.97;;;11.16;45.89
28000;BME280;15328;50.860;10.562;2023-05-03T19:24:12;97391.56;;;10.95;46.02
28000;BME280;15328;50.860;10.562;2023-05-03T19:29:14;97401.78;;;10.92;46.30
28000;BME280;15328;50.860;10.562;2023-05-03T19:34:14;97399.28;;;10.83;45.66
28000;BME280;15328;50.860;10.562;2023-05-03T19:39:15;97395.72;;;10.70;46.30
28000;BME280;15328;50.860;10.562;2023-05-03T19:44:15;97390.84;;;10.45;46.37
28000;BME280;15328;50.860;10.562;2023-05-03T19:49:17;97387.41;;;10.24;47.19
28000;BME280;15328;50.860;10.562;2023-05-03T19:54:17;97384.16;;;10.07;47.39
28000;BME280;15328;50.860;10.562;2023-05-03T19:59:17;97396.13;;;9.96;47.58
28000;BME280;15328;50.860;10.562;2023-05-03T20:04:18;97386.75;;;9.79;47.79
28000;BME280;15328;50.860;10.562;2023-05-03T20:09:18;97384.38;;;9.63;48.11
28000;BME280;15328;50.860;10.562;2023-05-03T20:14:22;97394.00;;;9.49;48.27
28000;BME280;15328;50.860;10.562;2023-05-03T20:19:23;97390.41;;;9.35;49.16
28000;BME280;15328;50.860;10.562;2023-05-03T20:24:24;97395.19;;;9.10;50.09
28000;BME280;15328;50.860;10.562;2023-05-03T20:29:24;97385.16;;;9.06;49.91
28000;BME280;15328;50.860;10.562;2023-05-03T20:34:25;97385.03;;;8.99;50.04
28000;BME280;15328;50.860;10.562;2023-05-03T20:39:26;97391.09;;;8.78;51.05
28000;BME280;15328;50.860;10.562;2023-05-03T20:44:26;97390.94;;;8.80;51.30
28000;BME280;15328;50.860;10.562;2023-05-03T20:49:26;97383.34;;;8.77;50.95
28000;BME280;15328;50.860;10.562;2023-05-03T20:54:27;97386.25;;;8.52;52.12
28000;BME280;15328;50.860;10.562;2023-05-03T20:59:27;97380.41;;;8.57;51.74
28000;BME280;15328;50.860;10.562;2023-05-03T21:04:28;97382.78;;;8.52;51.11
28000;BME280;15328;50.860;10.562;2023-05-03T21:09:29;97384.84;;;8.42;51.81
28000;BME280;15328;50.860;10.562;2023-05-03T21:14:29;97374.84;;;8.29;52.58
28000;BME280;15328;50.860;10.562;2023-05-03T21:19:30;97373.56;;;8.25;52.62
28000;BME280;15328;50.860;10.562;2023-05-03T21:24:30;97372.78;;;8.16;52.75
28000;BME280;15328;50.860;10.562;2023-05-03T21:29:30;97372.91;;;8.23;52.27
28000;BME280;15328;50.860;10.562;2023-05-03T21:34:31;97372.69;;;8.10;53.04
28000;BME280;15328;50.860;10.562;2023-05-03T21:39:31;97370.16;;;7.93;53.62
28000;BME280;15328;50.860;10.562;2023-05-03T21:44:32;97365.13;;;7.84;54.22
28000;BME280;15328;50.860;10.562;2023-05-03T21:49:32;97358.19;;;7.83;54.35
28000;BME280;15328;50.860;10.562;2023-05-03T21:54:33;97357.38;;;7.82;54.73
28000;BME280;15328;50.860;10.562;2023-05-03T21:59:33;97352.13;;;7.74;54.74
28000;BME280;15328;50.860;10.562;2023-05-03T22:04:33;97361.72;;;7.75;55.32
28000;BME280;15328;50.860;10.562;2023-05-03T22:09:34;97347.78;;;7.81;54.43
28000;BME280;15328;50.860;10.562;2023-05-03T22:14:34;97347.03;;;7.72;54.83
28000;BME280;15328;50.860;10.562;2023-05-03T22:19:36;97339.66;;;7.60;54.99
28000;BME280;15328;50.860;10.562;2023-05-03T22:24:39;97342.66;;;7.57;55.52
28000;BME280;15328;50.860;10.562;2023-05-03T22:29:39;97342.84;;;7.55;55.75
28000;BME280;15328;50.860;10.562;2023-05-03T22:34:40;97336.06;;;7.53;55.70
28000;BME280;15328;50.860;10.562;2023-05-03T22:39:40;97338.44;;;7.48;55.49
28000;BME280;15328;50.860;10.562;2023-05-03T22:44:41;97333.25;;;7.54;55.22
28000;BME280;15328;50.860;10.562;2023-05-03T22:49:41;97333.31;;;7.46;55.30
28000;BME280;15328;50.860;10.562;2023-05-03T22:54:42;97328.47;;;7.50;55.25
28000;BME280;15328;50.860;10.562;2023-05-03T22:59:45;97323.13;;;7.35;56.09
28000;BME280;15328;50.860;10.562;2023-05-03T23:04:46;97335.41;;;7.28;56.33
28000;BME280;15328;50.860;10.562;2023-05-03T23:09:46;97327.81;;;7.25;56.34
28000;BME280;15328;50.860;10.562;2023-05-03T23:14:47;97328.53;;;7.19;56.71
28000;BME280;15328;50.860;10.562;2023-05-03T23:19:47;97320.75;;;7.17;56.24
28000;BME280;15328;50.860;10.562;2023-05-03T23:24:48;97324.06;;;7.19;56.49
28000;BME280;15328;50.860;10.562;2023-05-03T23:29:49;97307.06;;;7.13;56.39
28000;BME280;15328;50.860;10.562;2023-05-03T23:34:49;97302.31;;;7.01;56.87
28000;BME280;15328;50.860;10.562;2023-05-03T23:39:50;97304.84;;;6.94;57.12
28000;BME280;15328;50.860;10.562;2023-05-03T23:44:51;97303.25;;;6.85;57.80
28000;BME280;15328;50.860;10.562;2023-05-03T23:49:51;97303.72;;;6.89;57.69
28000;BME280;15328;50.860;10.562;2023-05-03T23:54:51;97300.47;;;6.78;58.04
28000;BME280;15328;50.860;10.562;2023-05-03T23:59:52;97301.16;;;6.72;57.88
